Time;durP1;ratioP1;P1;durP2;ratioP2;P2;SDS_P1;SDS_P2;PMS_P1;PMS_P2;Temp;Humidity;BMP_temperature;BMP_pressure;BME280_temperature;BME280_humidity;BME280_pressure;Samples;Min_cycle;Max_cycle;Signal;HPM_P1;HPM_P2
2022/06/26 00:00:41;;;;;;;2.97;2.17;;;;;;;19.90;68.55;99007.19;4358718;32;34835;-76
2022/06/26 00:03:09;;;;;;;3.17;2.67;;;;;;;19.55;72.08;99007.25;4360903;32;35236;-76
2022/06/26 00:05:38;;;;;;;4.40;2.90;;;;;;;18.68;76.72;99009.94;4358490;32;34557;-76
2022/06/26 00:08:06;;;;;;;3.00;2.30;;;;;;;18.41;78.92;99009.50;4363412;32;34822;-78
2022/06/26 00:10:34;;;;;;;4.55;2.30;;;;;;;18.62;78.60;99011.09;4361557;32;34979;-85
2022/06/26 00:13:02;;;;;;;2.62;2.00;;;;;;;19.28;72.89;99014.84;4363372;32;35270;-76
2022/06/26 00:15:30;;;;;;;3.40;2.28;;;;;;;19.42;71.46;99016.78;4361253;32;34471;-83
2022/06/26 00:17:58;;;;;;;3.05;2.17;;;;;;;19.10;74.28;99022.78;4361782;32;33545;-76
2022/06/26 00:20:26;;;;;;;2.87;2.37;;;;;;;19.21;74.53;99024.03;4363292;32;36030;-76
2022/06/26 00:22:54;;;;;;;4.53;2.40;;;;;;;19.12;76.00;99025.34;4348436;32;34348;-76
2022/06/26 00:25:22;;;;;;;4.35;2.05;;;;;;;19.42;74.89;99020.28;4361911;32;33686;-76
2022/06/26 00:27:50;;;;;;;6.60;2.50;;;;;;;18.47;75.28;99030.28;4347656;32;32512;-76
2022/06/26 00:30:18;;;;;;;3.90;2.55;;;;;;;18.09;77.22;99030.31;4363033;32;35087;-76
2022/06/26 00:32:46;;;;;;;5.70;2.90;;;;;;;18.99;74.59;99035.69;4361967;32;35204;-77
2022/06/26 00:35:14;;;;;;;2.35;2.00;;;;;;;19.03;76.01;99029.31;4361859;32;33662;-77
2022/06/26 00:37:40;;;;;;;3.03;2.33;;;;;;;19.39;73.96;99033.63;4361539;32;34106;-76
2022/06/26 00:40:09;;;;;;;3.90;2.53;;;;;;;19.11;75.45;99029.78;4360668;32;35064;-76
2022/06/26 00:42:37;;;;;;;2.87;2.10;;;;;;;19.14;76.10;99019.03;4361640;32;34577;-76
2022/06/26 00:45:05;;;;;;;4.05;2.10;;;;;;;19.25;74.96;99022.94;4363122;32;33747;-76
2022/06/26 00:47:34;;;;;;;3.00;2.10;;;;;;;19.78;70.65;99029.00;4361422;32;34767;-76
2022/06/26 00:50:05;;;;;;;2.65;2.12;;;;;;;19.50;70.81;99031.28;4361714;32;35863;-76
2022/06/26 00:52:35;;;;;;;4.47;2.70;;;;;;;19.35;71.46;99040.00;4360292;32;35290;-82
2022/06/26 00:55:04;;;;;;;4.45;3.00;;;;;;;18.65;75.88;99045.19;4361888;32;34572;-76
2022/06/26 00:57:33;;;;;;;4.78;2.45;;;;;;;18.91;75.34;99046.59;4361333;32;33931;-76
2022/06/26 01:00:05;;;;;;;3.45;2.55;;;;;;;18.51;76.42;99052.94;4361989;32;36056;-76
2022/06/26 01:02:33;;;;;;;3.50;2.22;;;;;;;17.80;76.67;99040.37;4360284;32;34385;-76
2022/06/26 01:05:00;;;;;;;4.20;2.33;;;;;;;17.78;77.70;99042.22;4361604;32;33830;-76
2022/06/26 01:07:28;;;;;;;5.07;2.53;;;;;;;18.65;74.08;99050.47;4359993;32;34024;-76
2022/06/26 01:09:57;;;;;;;3.75;2.10;;;;;;;19.15;71.62;99043.69;4361269;32;35867;-76
2022/06/26 01:12:25;;;;;;;3.22;2.40;;;;;;;19.09;71.21;99047.44;4358699;32;34574;-76
2022/06/26 01:14:55;;;;;;;3.08;2.37;;;;;;;18.05;75.16;99049.81;4361860;32;33556;-77
2022/06/26 01:17:23;;;;;;;4.18;2.58;;;;;;;18.35;74.67;99051.03;4360695;32;34834;-82
2022/06/26 01:19:51;;;;;;;3.72;2.72;;;;;;;18.07;75.92;99055.87;4363450;32;35587;-76
2022/06/26 01:22:19;;;;;;;3.50;2.50;;;;;;;17.90;76.99;99054.88;4359669;32;35102;-76
2022/06/26 01:24:48;;;;;;;6.00;2.53;;;;;;;18.50;74.48;99053.88;4363296;32;33692;-77
2022/06/26 01:27:16;;;;;;;3.42;2.40;;;;;;;18.45;74.12;99053.25;4363202;32;33873;-77
2022/06/26 01:29:44;;;;;;;3.80;2.78;;;;;;;18.60;73.45;99056.91;4364456;32;35971;-76
2022/06/26 01:32:12;;;;;;;4.07;2.97;;;;;;;17.90;77.76;99049.59;4361335;32;32237;-76
2022/06/26 01:34:40;;;;;;;4.43;2.62;;;;;;;17.83;78.80;99047.31;4364400;32;34656;-76
2022/06/26 01:37:08;;;;;;;4.45;2.70;;;;;;;17.50;80.52;99047.87;4362100;32;34308;-76
2022/06/26 01:39:36;;;;;;;5.87;2.85;;;;;;;17.58;80.95;99043.13;4361384;32;35154;-76
2022/06/26 01:42:04;;;;;;;4.15;3.08;;;;;;;18.14;79.10;99057.28;4362876;32;35116;-77
2022/06/26 01:44:32;;;;;;;4.53;3.35;;;;;;;18.12;78.91;99059.16;4364657;32;33591;-77
2022/06/26 01:47:00;;;;;;;4.70;3.33;;;;;;;18.55;77.05;99055.34;4361564;32;34731;-76
2022/06/26 01:49:31;;;;;;;3.58;2.62;;;;;;;18.18;79.25;99061.53;4351723;32;34945;-76
2022/06/26 01:51:59;;;;;;;5.60;2.78;;;;;;;18.40;77.33;99055.25;4359479;32;34613;-77
2022/06/26 01:54:27;;;;;;;4.35;3.08;;;;;;;18.45;77.80;99061.16;4349500;33;33652;-76
2022/06/26 01:56:56;;;;;;;5.97;3.22;;;;;;;18.03;79.19;99051.69;4360151;32;34099;-76
2022/06/26 01:59:24;;;;;;;4.43;2.95;;;;;;;18.77;76.49;99052.50;4349823;33;35190;-76
2022/06/26 02:01:52;;;;;;;4.35;2.58;;;;;;;18.47;77.42;99067.19;4357751;32;34522;-76
2022/06/26 02:04:20;;;;;;;4.80;2.70;;;;;;;18.41;77.77;99059.59;4350977;32;31978;-76
2022/06/26 02:06:48;;;;;;;3.42;2.72;;;;;;;18.63;76.04;99065.53;4360810;32;33873;-77
2022/06/26 02:14:49;;;;;;;5.20;3.25;;;;;;;18.07;78.65;99066.41;4364391;32;34363;-77
2022/06/26 02:17:17;;;;;;;6.07;3.55;;;;;;;18.00;80.51;99077.25;4361180;32;33117;-76
2022/06/26 02:19:45;;;;;;;5.37;3.60;;;;;;;18.04;81.41;99069.22;4362842;32;35116;-85
2022/06/26 02:22:13;;;;;;;5.07;3.58;;;;;;;18.43;80.99;99078.81;4361197;32;34490;-75
2022/06/26 02:24:44;;;;;;;6.70;4.28;;;;;;;19.05;78.71;99080.22;4361559;32;34493;-76
2022/06/26 02:27:12;;;;;;;4.75;3.37;;;;;;;18.60;80.64;99081.53;4360166;32;34585;-76
2022/06/26 02:29:40;;;;;;;4.70;3.20;;;;;;;18.65;80.86;99082.12;4363880;32;35022;-75
2022/06/26 02:32:09;;;;;;;4.37;3.15;;;;;;;18.57;80.50;99081.66;4362529;32;34480;-76
2022/06/26 02:34:37;;;;;;;4.20;3.12;;;;;;;18.54;79.61;99081.78;4364287;32;33701;-75
2022/06/26 02:37:07;;;;;;;4.78;3.50;;;;;;;18.68;78.54;99089.06;4362852;32;34798;-76
2022/06/26 02:39:35;;;;;;;5.28;3.60;;;;;;;18.60;78.50;99080.63;4363910;32;35886;-76
2022/06/26 02:42:04;;;;;;;4.47;3.05;;;;;;;18.52;78.18;99081.88;4358995;32;34378;-76
2022/06/26 02:44:34;;;;;;;5.37;3.30;;;;;;;18.64;77.68;99083.06;4363041;32;33694;-76
2022/06/26 02:47:04;;;;;;;8.75;3.90;;;;;;;18.51;78.14;99084.56;4362413;32;34082;-76
2022/06/26 02:49:32;;;;;;;5.07;3.78;;;;;;;18.90;77.11;99084.47;4363871;32;35047;-76
2022/06/26 02:52:03;;;;;;;7.50;4.25;;;;;;;18.77;78.28;99093.87;4361539;32;33836;-76
2022/06/26 02:54:31;;;;;;;4.90;3.28;;;;;;;18.92;77.92;99090.53;4364203;32;33760;-76
2022/06/26 02:56:59;;;;;;;4.53;3.10;;;;;;;18.82;77.92;99091.06;4356204;32;34875;-85
2022/06/26 02:59:27;;;;;;;4.70;3.25;;;;;;;18.91;75.17;99095.88;4350234;32;36054;-81
2022/06/26 03:01:54;;;;;;;5.35;3.72;;;;;;;18.67;77.44;99105.78;4362594;32;34458;-84
2022/06/26 03:04:24;;;;;;;5.87;4.20;;;;;;;18.70;78.08;99109.13;4364174;32;33922;-76
2022/06/26 03:06:52;;;;;;;6.55;4.10;;;;;;;18.56;79.07;99116.84;4362313;32;33860;-77
2022/06/26 03:09:21;;;;;;;6.03;4.00;;;;;;;18.92;77.47;99118.72;4363458;32;34817;-76
2022/06/26 03:11:49;;;;;;;6.68;4.20;;;;;;;18.70;77.92;99119.69;4361106;32;35299;-76
2022/06/26 03:14:17;;;;;;;6.30;4.75;;;;;;;18.56;78.83;99122.13;4362876;32;33385;-76
2022/06/26 03:16:48;;;;;;;5.90;3.87;;;;;;;19.02;77.77;99119.09;4349477;32;32983;-76
2022/06/26 03:19:17;;;;;;;5.80;4.18;;;;;;;19.68;74.57;99118.44;4359363;32;35063;-76
2022/06/26 03:21:45;;;;;;;5.80;4.20;;;;;;;19.23;76.40;99119.81;4362139;32;34523;-77
2022/06/26 03:24:13;;;;;;;7.53;3.85;;;;;;;19.08;77.38;99130.22;4362605;32;34583;-76
2022/06/26 03:26:41;;;;;;;5.70;3.97;;;;;;;19.17;77.62;99133.34;4361125;32;33904;-75
2022/06/26 03:29:10;;;;;;;6.68;4.50;;;;;;;19.29;76.29;99143.28;4350244;32;34511;-76
2022/06/26 03:31:38;;;;;;;6.90;3.80;;;;;;;19.30;76.88;99139.69;4362106;32;34439;-76
2022/06/26 03:34:08;;;;;;;7.07;4.10;;;;;;;19.23;77.57;99143.59;4363981;32;33658;-76
2022/06/26 03:36:40;;;;;;;7.10;4.57;;;;;;;19.42;76.66;99141.72;4361064;32;33541;-76
2022/06/26 03:39:09;;;;;;;6.70;4.55;;;;;;;19.85;74.78;99146.63;4363790;32;35072;-77
2022/06/26 03:41:38;;;;;;;6.82;4.70;;;;;;;20.22;73.54;99139.41;4361863;32;35124;-76
2022/06/26 03:44:06;;;;;;;6.37;4.30;;;;;;;19.42;77.39;99146.16;4361537;32;33665;-82
2022/06/26 03:46:34;;;;;;;6.85;4.50;;;;;;;19.59;77.27;99142.66;4362295;32;33928;-84
2022/06/26 03:49:03;;;;;;;7.50;4.90;;;;;;;19.94;75.72;99137.38;4333922;33;35102;-76
2022/06/26 03:51:32;;;;;;;7.12;4.20;;;;;;;19.94;74.96;99145.31;4336067;32;35269;-84
2022/06/26 03:54:04;;;;;;;7.45;4.32;;;;;;;20.29;73.81;99145.22;4348872;33;31965;-84
2022/06/26 03:56:33;;;;;;;5.62;4.25;;;;;;;20.52;73.10;99143.97;4347337;33;33932;-85
2022/06/26 03:59:01;;;;;;;8.20;4.30;;;;;;;20.25;73.51;99144.53;4348621;33;34348;-76
2022/06/26 04:01:30;;;;;;;7.12;4.60;;;;;;;20.57;72.52;99153.34;4356732;32;34494;-76
2022/06/26 04:03:59;;;;;;;11.23;4.57;;;;;;;20.79;71.99;99144.28;4360417;32;31764;-76
2022/06/26 04:06:27;;;;;;;10.57;4.30;;;;;;;20.85;71.36;99143.94;4362587;32;33684;-76
2022/06/26 04:08:59;;;;;;;7.87;4.40;;;;;;;21.28;69.52;99151.22;4361875;32;35934;-76
2022/06/26 04:11:27;;;;;;;5.87;4.37;;;;;;;21.29;69.89;99148.47;4363343;32;34693;-76
2022/06/26 04:13:55;;;;;;;5.70;3.90;;;;;;;21.16;70.44;99137.75;4361977;32;34489;-77
2022/06/26 04:16:23;;;;;;;5.00;3.60;;;;;;;21.42;70.44;99134.50;4362123;32;33902;-76
2022/06/26 04:18:52;;;;;;;4.57;3.12;;;;;;;21.51;70.78;99132.22;4362121;32;35115;-77
2022/06/26 04:21:20;;;;;;;4.32;3.17;;;;;;;21.75;70.21;99135.19;4363326;32;34999;-77
2022/06/26 04:23:48;;;;;;;3.90;2.78;;;;;;;21.98;68.52;99140.91;4348195;32;33708;-75
2022/06/26 04:26:17;;;;;;;3.75;2.95;;;;;;;22.43;67.12;99146.13;4363117;32;34868;-75
2022/06/26 04:28:45;;;;;;;4.20;3.00;;;;;;;22.70;66.51;99144.38;4361727;32;34873;-76
2022/06/26 04:31:13;;;;;;;4.05;2.72;;;;;;;23.01;65.38;99152.16;4360606;32;34529;-75
2022/06/26 04:33:41;;;;;;;3.67;2.80;;;;;;;23.02;65.98;99143.25;4360552;32;33417;-75
2022/06/26 04:36:09;;;;;;;4.03;3.00;;;;;;;23.32;64.29;99144.88;4363212;32;33835;-75
2022/06/26 04:38:37;;;;;;;3.40;2.55;;;;;;;23.64;63.04;99140.03;4359948;32;34434;-75
2022/06/26 04:43:53;;;;;;;4.37;2.80;;;;;;;23.97;62.09;99152.88;4361314;32;34661;-76
2022/06/26 04:46:21;;;;;;;3.50;2.55;;;;;;;23.52;63.22;99156.81;4361821;32;32397;-76
2022/06/26 04:48:52;;;;;;;3.35;2.67;;;;;;;24.00;61.26;99163.31;4348458;32;35911;-82
2022/06/26 04:51:20;;;;;;;3.85;2.87;;;;;;;23.48;62.64;99158.84;4358236;32;34466;-82
2022/06/26 04:53:48;;;;;;;4.30;2.50;;;;;;;24.18;59.84;99155.00;4358648;32;33958;-76
2022/06/26 04:56:16;;;;;;;2.80;2.35;;;;;;;24.16;59.78;99156.88;4363099;32;33476;-75
2022/06/26 04:58:44;;;;;;;4.00;2.70;;;;;;;24.22;59.71;99152.00;4360595;32;35139;-83
2022/06/26 05:01:13;;;;;;;4.00;2.55;;;;;;;24.38;59.38;99150.91;4362673;32;34658;-76
2022/06/26 05:03:46;;;;;;;3.22;2.30;;;;;;;24.72;58.23;99153.84;4348583;32;34484;-76
2022/06/26 05:06:20;;;;;;;4.40;2.55;;;;;;;24.52;59.64;99157.94;4362911;32;33285;-75
2022/06/26 05:08:49;;;;;;;3.55;2.60;;;;;;;24.90;58.01;99159.66;4360237;32;35183;-76
2022/06/26 05:11:19;;;;;;;6.30;3.00;;;;;;;24.71;58.97;99147.69;4349367;32;32510;-76
2022/06/26 05:13:48;;;;;;;3.42;2.78;;;;;;;24.57;59.94;99155.81;4358593;32;33730;-76
2022/06/26 05:16:16;;;;;;;5.90;2.53;;;;;;;24.94;58.85;99155.81;4347480;33;33590;-76
2022/06/26 05:18:45;;;;;;;4.05;3.03;;;;;;;25.00;58.33;99157.19;4348497;32;35038;-79
2022/06/26 05:21:14;;;;;;;5.90;3.00;;;;;;;24.56;59.18;99154.09;4353109;32;34621;-76
2022/06/26 05:23:41;;;;;;;5.68;2.85;;;;;;;24.97;59.76;99152.91;4354003;32;34465;-76
2022/06/26 05:26:10;;;;;;;4.93;3.42;;;;;;;25.56;56.97;99149.44;4345448;33;34083;-77
2022/06/26 05:28:38;;;;;;;4.18;3.10;;;;;;;25.92;55.94;99163.59;4348334;32;35085;-76
2022/06/26 05:31:06;;;;;;;4.78;2.90;;;;;;;25.43;56.67;99162.87;4345839;33;34660;-76
2022/06/26 05:33:34;;;;;;;5.28;3.17;;;;;;;25.10;58.29;99153.72;4354098;32;32594;-75
2022/06/26 05:36:03;;;;;;;5.70;3.05;;;;;;;25.17;57.87;99162.94;4348343;32;34719;-77
2022/06/26 05:38:30;;;;;;;7.15;3.50;;;;;;;25.61;56.68;99168.63;4360701;32;35136;-76
2022/06/26 05:40:59;;;;;;;4.10;3.08;;;;;;;25.54;57.49;99165.56;4360086;32;34527;-76
2022/06/26 05:43:27;;;;;;;5.07;3.20;;;;;;;26.39;54.82;99160.88;4360978;32;33887;-76
2022/06/26 05:45:55;;;;;;;4.03;3.25;;;;;;;26.67;53.64;99165.75;4362115;32;33921;-75
2022/06/26 05:48:24;;;;;;;5.10;3.47;;;;;;;26.34;53.56;99163.06;4359642;32;35805;-83
2022/06/26 05:50:56;;;;;;;7.22;5.45;;;;;;;26.80;52.85;99164.75;4362299;32;34540;-85
2022/06/26 05:53:28;;;;;;;5.97;4.22;;;;;;;26.18;55.16;99161.59;4351639;32;33681;-85
2022/06/26 05:55:59;;;;;;;7.50;3.60;;;;;;;26.91;53.67;99170.06;4354468;32;33127;-79
2022/06/26 05:58:30;;;;;;;4.47;3.45;;;;;;;26.93;53.17;99168.13;4360712;32;35961;-81
2022/06/26 06:00:58;;;;;;;4.05;2.85;;;;;;;27.32;52.24;99168.53;4361916;32;34466;-86
2022/06/26 06:03:26;;;;;;;4.53;2.90;;;;;;;27.48;51.50;99161.88;4361205;32;33557;-85
2022/06/26 06:05:54;;;;;;;4.28;2.90;;;;;;;27.38;51.11;99167.16;4364135;32;34621;-85
2022/06/26 06:08:22;;;;;;;3.55;2.85;;;;;;;27.14;52.96;99170.00;4347717;32;34251;-78
2022/06/26 06:10:50;;;;;;;3.78;2.80;;;;;;;27.52;51.49;99174.88;4362981;32;35315;-76
2022/06/26 06:13:19;;;;;;;5.95;2.53;;;;;;;27.43;51.01;99167.63;4360292;32;33881;-83
2022/06/26 06:15:47;;;;;;;3.78;2.62;;;;;;;27.96;50.18;99172.13;4364105;32;33926;-77
2022/06/26 06:18:15;;;;;;;4.07;2.58;;;;;;;27.80;50.15;99170.72;4362723;32;34569;-76
2022/06/26 06:20:45;;;;;;;3.45;2.80;;;;;;;27.76;49.38;99169.28;4363045;32;34492;-76
2022/06/26 06:23:34;;;;;;;3.25;2.60;;;;;;;27.72;50.32;99181.19;4349912;32;32932;-76
2022/06/26 06:26:02;;;;;;;4.50;2.72;;;;;;;27.87;49.95;99179.06;4364055;32;34057;-76
2022/06/26 06:28:29;;;;;;;3.70;2.50;;;;;;;28.84;47.37;99180.56;4362127;32;34539;-85
2022/06/26 06:30:58;;;;;;;3.58;2.50;;;;;;;28.71;49.19;99186.13;4362138;32;34322;-87
2022/06/26 06:33:26;;;;;;;3.90;2.58;;;;;;;28.53;49.74;99186.75;4362102;32;34431;-87
2022/06/26 06:35:55;;;;;;;8.00;2.50;;;;;;;29.28;46.74;99192.66;4364019;32;33921;-76
2022/06/26 06:38:24;;;;;;;2.67;2.10;;;;;;;29.91;45.53;99194.03;4362405;32;35161;-76
2022/06/26 06:40:52;;;;;;;2.70;2.00;;;;;;;29.19;47.47;99201.53;4349627;32;34722;-76
2022/06/26 06:43:22;;;;;;;2.78;2.25;;;;;;;30.21;43.43;99198.38;4362670;32;33828;-76
2022/06/26 06:45:52;;;;;;;2.47;1.90;;;;;;;30.39;42.54;99198.50;4362632;32;34322;-77
2022/06/26 06:48:24;;;;;;;7.60;2.30;;;;;;;30.29;43.09;99203.00;4359347;32;35784;-76
2022/06/26 06:51:05;;;;;;;2.35;1.80;;;;;;;30.73;42.80;99205.97;4363929;32;32975;-77
2022/06/26 06:53:33;;;;;;;2.03;1.83;;;;;;;30.34;41.60;99208.81;4355507;32;33907;-77
2022/06/26 06:56:01;;;;;;;2.47;1.70;;;;;;;31.06;41.24;99216.28;4348601;33;33905;-82
2022/06/26 06:58:29;;;;;;;2.15;1.80;;;;;;;31.07;41.49;99218.84;4362360;32;33568;-77
2022/06/26 07:00:57;;;;;;;2.37;1.70;;;;;;;30.40;41.76;99220.81;4364152;32;35221;-77
2022/06/26 07:03:25;;;;;;;2.72;1.95;;;;;;;30.66;42.06;99214.78;4361090;32;33764;-77
2022/06/26 07:05:53;;;;;;;2.58;1.90;;;;;;;31.19;40.01;99220.31;4362656;32;34138;-78
2022/06/26 07:08:21;;;;;;;3.85;1.80;;;;;;;31.61;39.33;99215.34;4359584;32;34999;-77
2022/06/26 07:10:49;;;;;;;1.50;1.40;;;;;;;30.96;40.18;99217.19;4347358;33;35310;-80
2022/06/26 07:13:18;;;;;;;2.10;1.52;;;;;;;31.08;40.18;99217.84;4354115;32;33621;-76
2022/06/26 07:15:46;;;;;;;1.60;1.50;;;;;;;31.81;38.04;99221.41;4362841;32;33939;-77
2022/06/26 07:18:14;;;;;;;2.00;1.80;;;;;;;31.99;37.72;99216.00;4361742;32;35142;-76
2022/06/26 07:20:42;;;;;;;2.83;1.75;;;;;;;31.62;39.31;99217.06;4363697;32;35298;-76
2022/06/26 07:23:10;;;;;;;1.52;1.40;;;;;;;31.02;41.08;99215.75;4362147;32;33794;-77
2022/06/26 07:25:38;;;;;;;1.73;1.40;;;;;;;30.92;38.73;99210.44;4363811;32;34789;-76
2022/06/26 07:28:08;;;;;;;2.08;1.42;;;;;;;31.76;37.81;99213.81;4362224;32;35094;-77
2022/06/26 07:30:36;;;;;;;2.03;1.58;;;;;;;31.78;37.30;99217.19;4363180;32;35468;-77
2022/06/26 07:33:05;;;;;;;4.00;2.50;;;;;;;32.61;37.13;99213.22;4362201;32;33654;-76
2022/06/26 07:35:33;;;;;;;4.68;1.73;;;;;;;30.95;39.93;99212.81;4363869;32;34050;-77
2022/06/26 07:38:01;;;;;;;2.87;1.65;;;;;;;32.28;37.13;99211.19;4360919;32;33569;-77
2022/06/26 07:40:30;;;;;;;6.62;3.30;;;;;;;32.39;36.55;99214.63;4363866;32;34591;-76
2022/06/26 07:43:00;;;;;;;1.98;1.62;;;;;;;31.10;37.19;99213.16;4354529;32;33786;-78
2022/06/26 07:45:33;;;;;;;2.00;1.52;;;;;;;32.09;36.24;99214.09;4362046;32;33948;-77
2022/06/26 07:48:03;;;;;;;4.82;1.50;;;;;;;32.26;37.46;99210.50;4360449;32;33945;-85
2022/06/26 07:50:33;;;;;;;6.87;2.20;;;;;;;32.83;36.01;99201.88;4363840;32;34485;-85
2022/06/26 07:53:01;;;;;;;3.00;1.50;;;;;;;32.02;38.10;99202.22;4361601;32;33571;-82
2022/06/26 07:55:29;;;;;;;2.12;1.62;;;;;;;33.19;34.39;99204.34;4363560;32;33896;-83
2022/06/26 07:57:57;;;;;;;2.05;1.35;;;;;;;32.30;37.72;99200.25;4359158;32;35145;-86
2022/06/26 08:00:25;;;;;;;1.65;1.40;;;;;;;33.61;33.35;99199.84;4348557;32;34470;-81
2022/06/26 08:02:53;;;;;;;1.62;1.12;;;;;;;33.75;32.98;99201.91;4360505;32;33642;-84
2022/06/26 08:05:21;;;;;;;3.40;2.40;;;;;;;32.98;33.26;99207.47;4363227;32;34759;-82
2022/06/26 08:07:49;;;;;;;1.70;1.30;;;;;;;33.53;32.58;99206.09;4360995;32;35986;-82
2022/06/26 08:10:17;;;;;;;6.62;1.60;;;;;;;32.35;34.89;99203.31;4361619;32;34488;-82
2022/06/26 08:12:45;;;;;;;2.35;1.50;;;;;;;33.59;33.41;99199.19;4361888;32;33776;-84
2022/06/26 08:15:13;;;;;;;2.17;1.50;;;;;;;34.01;33.24;99206.28;4359294;32;32898;-77
2022/06/26 08:17:41;;;;;;;2.80;1.40;;;;;;;33.95;33.12;99202.38;4359858;32;34827;-79
2022/06/26 08:20:09;;;;;;;1.65;1.25;;;;;;;34.52;32.09;99198.75;4359070;32;34578;-79
2022/06/26 08:22:37;;;;;;;6.53;1.40;;;;;;;34.52;32.06;99197.88;4363237;32;33702;-78
2022/06/26 08:25:06;;;;;;;2.53;1.12;;;;;;;34.22;33.30;99197.66;4358596;32;34520;-78
2022/06/26 08:27:33;;;;;;;7.25;1.45;;;;;;;34.40;33.62;99194.72;4361775;32;35102;-78
2022/06/26 08:30:02;;;;;;;3.95;1.40;;;;;;;33.93;33.73;99206.28;4360837;32;34609;-80
2022/06/26 08:32:30;;;;;;;1.45;1.23;;;;;;;33.63;32.63;99203.22;4360750;32;34525;-77
2022/06/26 08:34:58;;;;;;;1.25;1.17;;;;;;;33.71;31.01;99205.97;4360572;32;33931;-77
2022/06/26 08:37:26;;;;;;;3.90;1.42;;;;;;;31.97;35.03;99209.94;4336721;32;32126;-77
2022/06/26 08:39:54;;;;;;;1.80;1.30;;;;;;;33.85;32.39;99211.69;4360755;32;34356;-77
2022/06/26 08:42:30;;;;;;;2.00;1.30;;;;;;;33.98;30.84;99212.03;4363239;32;33712;-77
2022/06/26 08:44:58;;;;;;;6.30;1.65;;;;;;;33.73;33.30;99214.72;4360110;32;33930;-77
2022/06/26 08:47:32;;;;;;;1.33;1.23;;;;;;;34.13;31.72;99209.44;4362169;32;34938;-77
2022/06/26 08:50:01;;;;;;;1.80;1.25;;;;;;;33.40;33.66;99214.66;4360289;32;34668;-77
2022/06/26 08:52:29;;;;;;;1.50;1.20;;;;;;;33.79;32.43;99211.34;4361864;32;33756;-77
2022/06/26 08:54:58;;;;;;;1.42;1.10;;;;;;;33.70;33.76;99204.25;4361507;32;33830;-78
2022/06/26 08:57:26;;;;;;;1.62;1.35;;;;;;;34.45;32.39;99211.28;4361831;32;35120;-78
2022/06/26 08:59:54;;;;;;;1.25;1.15;;;;;;;33.95;34.91;99206.94;4360223;32;34406;-78
2022/06/26 09:02:21;;;;;;;3.28;1.23;;;;;;;34.38;31.13;99207.59;4361838;32;34468;-77
2022/06/26 09:04:49;;;;;;;1.35;1.20;;;;;;;35.31;29.75;99212.28;4361341;32;34761;-77
2022/06/26 09:07:18;;;;;;;1.00;0.90;;;;;;;35.67;28.33;99211.66;4361727;32;35474;-78
2022/06/26 09:09:46;;;;;;;3.12;1.10;;;;;;;33.94;32.05;99207.97;4359838;32;34405;-78
2022/06/26 09:12:14;;;;;;;1.33;1.17;;;;;;;34.75;29.51;99206.13;4362856;32;34502;-77
2022/06/26 09:14:43;;;;;;;2.60;1.30;;;;;;;34.35;31.36;99207.94;4361355;32;34077;-84
2022/06/26 09:17:12;;;;;;;1.30;1.15;;;;;;;33.90;28.38;99212.00;4362626;32;35913;-77
2022/06/26 09:19:46;;;;;;;3.17;1.23;;;;;;;34.62;26.47;99208.50;4360745;32;35354;-78
2022/06/26 09:22:15;;;;;;;2.55;1.15;;;;;;;35.42;24.25;99211.00;4361486;32;33770;-82
2022/06/26 09:24:57;;;;;;;2.70;1.05;;;;;;;34.69;26.22;99207.63;4360126;32;33817;-77
2022/06/26 09:27:25;;;;;;;2.35;1.25;;;;;;;34.96;26.09;99208.19;4333052;33;34590;-78
2022/06/26 09:29:55;;;;;;;2.95;1.10;;;;;;;35.34;26.81;99208.34;4351555;32;34261;-77
2022/06/26 09:32:23;;;;;;;1.20;1.05;;;;;;;35.37;25.81;99207.13;4361597;32;34579;-78
2022/06/26 09:34:53;;;;;;;2.55;1.40;;;;;;;34.76;27.57;99205.09;4360731;32;34877;-77
2022/06/26 09:37:23;;;;;;;1.48;1.27;;;;;;;35.13;29.49;99201.69;4358542;32;35138;-78
2022/06/26 09:40:14;;;;;;;1.23;1.12;;;;;;;34.62;27.18;99197.69;4362889;32;34593;-77
2022/06/26 09:42:42;;;;;;;2.95;1.35;;;;;;;33.60;28.30;99200.84;4363240;32;33437;-78
2022/06/26 09:45:10;;;;;;;3.22;1.35;;;;;;;34.09;28.33;99206.25;4362908;32;33909;-78
2022/06/26 09:47:39;;;;;;;1.30;1.10;;;;;;;35.09;29.04;99204.94;4363151;32;35931;-78
2022/06/26 09:50:08;;;;;;;2.20;0.93;;;;;;;36.33;25.84;99202.94;4361692;32;34198;-78
2022/06/26 09:52:36;;;;;;;1.37;1.15;;;;;;;36.18;26.53;99199.34;4359404;32;33769;-83
2022/06/26 09:55:06;;;;;;;1.73;1.23;;;;;;;35.30;30.52;99198.91;4358962;32;34709;-78
2022/06/26 09:57:36;;;;;;;1.40;1.17;;;;;;;35.76;28.53;99201.63;4364257;32;35879;-77
2022/06/26 10:00:06;;;;;;;2.17;1.10;;;;;;;35.00;26.97;99196.03;4361751;32;34601;-78
2022/06/26 10:08:32;;;;;;;1.95;1.12;;;;;;;36.83;26.01;99191.53;4327878;32;34379;-78
2022/06/26 10:11:01;;;;;;;2.97;1.33;;;;;;;35.74;28.06;99203.69;4363699;32;34808;-77
2022/06/26 10:13:33;;;;;;;1.17;1.00;;;;;;;35.47;29.76;99194.22;4347277;32;32485;-78
2022/06/26 10:16:30;;;;;;;1.40;1.30;;;;;;;35.80;27.78;99191.25;4363064;32;34122;-78
2022/06/26 10:19:19;;;;;;;1.98;1.10;;;;;;;34.89;27.94;99189.16;4361167;32;34962;-78
2022/06/26 10:21:48;;;;;;;1.40;1.08;;;;;;;35.54;29.21;99186.22;4363001;32;34630;-78
2022/06/26 10:24:16;;;;;;;5.37;1.98;;;;;;;36.08;26.75;99194.22;4360016;32;33611;-78
2022/06/26 10:26:55;;;;;;;5.90;1.35;;;;;;;36.50;26.52;99186.47;4361313;32;34577;-78
2022/06/26 10:29:36;;;;;;;1.60;1.10;;;;;;;36.41;28.92;99189.31;4361045;32;35531;-78
2022/06/26 10:32:06;;;;;;;5.80;1.30;;;;;;;36.25;26.40;99179.50;4363059;32;35114;-77
2022/06/26 10:34:35;;;;;;;1.87;1.27;;;;;;;36.75;26.94;99185.19;4362399;32;33791;-78
2022/06/26 10:37:13;;;;;;;3.05;1.42;;;;;;;37.29;23.28;99180.38;4362641;32;34753;-78
2022/06/26 10:39:42;;;;;;;2.10;1.20;;;;;;;36.91;26.53;99172.44;4361474;32;35129;-78
2022/06/26 10:45:33;;;;;;;4.00;1.40;;;;;;;37.22;24.79;99179.47;4360003;32;33646;-84
2022/06/26 10:48:04;;;;;;;2.35;1.50;;;;;;;37.23;25.43;99178.44;4363783;32;33859;-78
2022/06/26 10:50:35;;;;;;;1.37;1.20;;;;;;;36.94;25.51;99177.47;4361422;32;34941;-78
2022/06/26 10:53:23;;;;;;;1.35;1.25;;;;;;;37.13;25.84;99181.44;4358934;32;35268;-84
2022/06/26 10:55:57;;;;;;;1.98;1.23;;;;;;;36.99;24.63;99177.72;4359838;32;34484;-78
2022/06/26 10:58:28;;;;;;;1.50;1.40;;;;;;;35.68;25.11;99177.28;4361644;32;34003;-77
2022/06/26 11:00:59;;;;;;;3.12;1.45;;;;;;;35.10;26.23;99172.28;4360117;32;35155;-78
2022/06/26 11:03:28;;;;;;;1.95;1.40;;;;;;;35.11;26.75;99170.41;4362791;32;33542;-78
2022/06/26 11:06:04;;;;;;;3.28;1.30;;;;;;;35.36;27.09;99167.56;4359818;32;33743;-78
2022/06/26 11:08:34;;;;;;;3.40;1.40;;;;;;;35.14;29.21;99170.06;4362792;32;33842;-79
2022/06/26 11:11:15;;;;;;;2.55;1.75;;;;;;;35.23;28.20;99174.41;4362136;32;34989;-78
2022/06/26 11:13:52;;;;;;;2.47;1.40;;;;;;;34.44;29.15;99174.44;4361131;32;34554;-85
2022/06/26 11:16:31;;;;;;;7.55;1.60;;;;;;;33.55;31.29;99168.97;4332864;33;33852;-79
2022/06/26 11:19:20;;;;;;;2.08;1.50;;;;;;;34.94;29.79;99170.53;4336582;32;33818;-77
2022/06/26 11:21:49;;;;;;;1.95;1.15;;;;;;;34.89;27.01;99164.81;4363815;32;35766;-84
2022/06/26 11:24:16;;;;;;;2.10;1.40;;;;;;;34.44;27.46;99169.03;4361055;32;34636;-78
2022/06/26 11:26:51;;;;;;;2.70;1.40;;;;;;;33.29;29.59;99174.53;4363717;32;33761;-79
2022/06/26 11:29:19;;;;;;;1.45;1.20;;;;;;;33.46;30.22;99163.72;4359770;32;34612;-78
2022/06/26 11:31:48;;;;;;;2.58;1.37;;;;;;;33.96;29.63;99170.81;4362455;32;34907;-80
2022/06/26 11:34:17;;;;;;;2.90;1.52;;;;;;;34.65;28.22;99167.59;4362113;32;34517;-78
2022/06/26 11:36:53;;;;;;;2.00;1.62;;;;;;;34.60;27.75;99172.69;4363585;32;34600;-79
2022/06/26 11:39:40;;;;;;;2.10;1.60;;;;;;;33.15;30.45;99169.78;4348698;32;32548;-79
2022/06/26 11:42:14;;;;;;;2.03;1.60;;;;;;;33.39;30.83;99169.81;4362522;32;35136;-78
2022/06/26 11:44:52;;;;;;;3.70;1.60;;;;;;;32.39;30.71;99169.63;4362490;32;35080;-78
2022/06/26 11:47:21;;;;;;;2.22;1.58;;;;;;;32.49;32.68;99161.41;4362600;32;34345;-78
2022/06/26 11:49:50;;;;;;;1.92;1.40;;;;;;;32.40;33.85;99165.09;4360911;32;34926;-78
2022/06/26 11:52:18;;;;;;;3.55;1.70;;;;;;;33.53;31.91;99170.13;4363566;32;35158;-78
2022/06/26 11:54:46;;;;;;;6.85;1.40;;;;;;;33.06;31.72;99169.72;4353251;32;34460;-79
2022/06/26 11:57:14;;;;;;;1.92;1.33;;;;;;;32.79;32.48;99164.59;4363516;32;34586;-78
2022/06/26 11:59:45;;;;;;;2.00;1.40;;;;;;;33.17;32.19;99156.97;4361749;32;34723;-78
2022/06/26 12:02:20;;;;;;;2.75;1.30;;;;;;;33.12;33.95;99161.97;4361803;32;35912;-78